createdAt,value
2023-03-22T00:02:23.181Z,9.52
2023-03-22T00:06:05.778Z,7.88
2023-03-22T00:09:47.695Z,7.10
2023-03-22T00:13:29.962Z,9.57
2023-03-22T00:17:11.880Z,6.90
2023-03-22T00:20:56.196Z,7.22
2023-03-22T00:24:38.356Z,6.53
2023-03-22T00:28:20.281Z,8.73
2023-03-22T00:32:02.986Z,5.78
2023-03-22T00:35:52.458Z,8.25
2023-03-22T00:39:34.354Z,6.60
2023-03-22T00:43:16.891Z,6.47
2023-03-22T00:46:58.998Z,7.05
2023-03-22T00:50:41.346Z,5.97
2023-03-22T00:54:23.271Z,4.78
2023-03-22T00:58:05.608Z,8.15
2023-03-22T01:01:47.538Z,7.28
2023-03-22T01:05:34.993Z,7.47
2023-03-22T01:09:16.859Z,9.13
2023-03-22T01:12:58.796Z,8.23
2023-03-22T01:16:41.009Z,5.93
2023-03-22T01:20:23.954Z,6.93
2023-03-22T01:24:06.117Z,4.70
2023-03-22T01:27:48.052Z,5.43
2023-03-22T01:31:30.018Z,5.15
2023-03-22T01:35:11.962Z,5.07
2023-03-22T01:38:53.912Z,4.07
2023-03-22T01:42:35.962Z,3.95
2023-03-22T01:46:18.090Z,4.20
2023-03-22T01:50:00.024Z,5.90
2023-03-22T01:53:56.388Z,6.05
2023-03-22T01:57:40.049Z,4.80
2023-03-22T02:01:22.645Z,4.47
2023-03-22T02:05:05.086Z,4.88
2023-03-22T02:08:47.108Z,5.93
2023-03-22T02:12:39.813Z,3.67
2023-03-22T02:16:57.263Z,5.95
2023-03-22T02:20:45.365Z,4.72
2023-03-22T02:24:30.233Z,5.82
2023-03-22T02:28:40.529Z,3.33
2023-03-22T02:33:00.747Z,4.03
2023-03-22T02:37:13.508Z,3.80
2023-03-22T02:41:01.683Z,4.35
2023-03-22T02:44:54.111Z,3.47
2023-03-22T02:48:53.329Z,5.32
2023-03-22T02:52:55.391Z,4.82
2023-03-22T02:56:47.057Z,4.97
2023-03-22T03:00:30.521Z,3.30
2023-03-22T03:04:21.605Z,4.43
2023-03-22T03:08:04.581Z,5.45
2023-03-22T03:11:52.228Z,3.88
2023-03-22T03:15:34.203Z,2.90
2023-03-22T03:19:33.070Z,5.13
2023-03-22T03:23:24.541Z,4.63
2023-03-22T03:27:21.943Z,5.55
2023-03-22T03:31:10.948Z,5.30
2023-03-22T03:35:22.589Z,4.47
2023-03-22T03:39:09.248Z,6.10
2023-03-22T03:42:54.223Z,3.90
2023-03-22T03:46:36.409Z,6.63
2023-03-22T03:50:18.468Z,4.30
2023-03-22T03:54:00.429Z,7.22
2023-03-22T03:57:42.331Z,4.68
2023-03-22T04:01:26.445Z,3.97
2023-03-22T04:05:09.296Z,3.80
2023-03-22T04:08:53.787Z,5.35
2023-03-22T04:12:36.018Z,2.85
2023-03-22T04:16:17.971Z,5.50
2023-03-22T04:19:59.947Z,4.38
2023-03-22T04:23:41.860Z,3.35
2023-03-22T04:27:23.796Z,5.28
2023-03-22T04:31:07.016Z,4.25
2023-03-22T04:34:49.938Z,4.03
2023-03-22T04:38:31.931Z,4.38
2023-03-22T04:42:13.868Z,4.65
2023-03-22T04:45:58.276Z,2.72
2023-03-22T04:49:40.405Z,3.00
2023-03-22T04:53:27.248Z,3.03
2023-03-22T04:57:09.249Z,3.10
2023-03-22T05:00:55.523Z,4.05
2023-03-22T05:04:37.458Z,4.68
2023-03-22T05:08:20.992Z,3.05
2023-03-22T05:12:02.952Z,3.25
2023-03-22T05:15:45.732Z,2.65
2023-03-22T05:19:27.688Z,1.55
2023-03-22T05:23:10.370Z,3.03
2023-03-22T05:26:54.067Z,1.83
2023-03-22T05:30:36.263Z,3.00
2023-03-22T05:34:20.444Z,3.70
2023-03-22T05:38:02.512Z,3.20
2023-03-22T05:41:44.769Z,3.47
2023-03-22T05:45:27.279Z,2.35
2023-03-22T05:49:10.552Z,4.30
2023-03-22T05:52:54.184Z,4.70
2023-03-22T05:56:36.371Z,2.95
2023-03-22T06:00:19.085Z,6.07
2023-03-22T06:04:01.562Z,6.18
2023-03-22T06:07:44.520Z,7.10
2023-03-22T06:11:26.661Z,4.97
2023-03-22T06:15:10.146Z,5.75
2023-03-22T06:18:52.036Z,3.42
2023-03-22T06:22:33.911Z,5.20
2023-03-22T06:26:15.841Z,3.63
2023-03-22T06:29:57.784Z,4.43
2023-03-22T06:33:39.741Z,3.63
2023-03-22T06:37:22.252Z,1.60
2023-03-22T06:41:04.400Z,3.58
2023-03-22T06:44:46.465Z,2.65
2023-03-22T06:48:28.483Z,3.50
2023-03-22T06:52:10.380Z,4.03
2023-03-22T06:55:55.227Z,2.83
2023-03-22T06:59:37.511Z,5.10
2023-03-22T07:03:19.866Z,7.93
2023-03-22T07:07:01.747Z,7.53
2023-03-22T07:10:44.017Z,4.55
2023-03-22T07:14:25.992Z,7.15
2023-03-22T07:18:08.611Z,6.20
2023-03-22T07:21:50.861Z,6.40
2023-03-22T07:25:32.814Z,4.95
2023-03-22T07:29:14.690Z,6.55
2023-03-22T07:32:56.719Z,7.85
2023-03-22T07:36:38.687Z,10.00
2023-03-22T07:40:20.690Z,7.43
2023-03-22T07:44:16.903Z,6.05
2023-03-22T07:47:59.681Z,6.03
2023-03-22T07:51:41.756Z,6.45
2023-03-22T07:55:24.051Z,11.73
2023-03-22T07:59:06.451Z,11.70
2023-03-22T08:02:48.552Z,8.27
2023-03-22T08:06:33.172Z,10.07
2023-03-22T08:10:16.029Z,4.50
2023-03-22T08:13:57.899Z,9.20
2023-03-22T08:17:39.908Z,8.23
2023-03-22T08:21:21.815Z,9.25
2023-03-22T08:25:07.342Z,10.30
2023-03-22T08:28:49.204Z,7.82
2023-03-22T08:32:31.194Z,15.23
2023-03-22T08:36:16.464Z,12.15
2023-03-22T08:39:58.611Z,16.38
2023-03-22T08:43:40.569Z,10.73
2023-03-22T08:47:22.520Z,10.73
2023-03-22T08:51:06.575Z,11.00
2023-03-22T08:54:48.633Z,10.32
2023-03-22T08:58:30.835Z,8.90
2023-03-22T09:02:13.217Z,12.63
2023-03-22T09:05:55.418Z,7.93
2023-03-22T09:09:37.442Z,11.27
2023-03-22T09:13:20.209Z,10.40
2023-03-22T09:17:02.326Z,10.70
2023-03-22T09:20:46.026Z,10.30
2023-03-22T09:24:27.973Z,7.15
2023-03-22T09:28:10.613Z,10.43
2023-03-22T09:31:53.584Z,7.75
2023-03-22T09:35:35.743Z,11.73
2023-03-22T09:39:17.844Z,9.63
2023-03-22T09:43:04.226Z,10.50
2023-03-22T09:46:50.033Z,10.98
2023-03-22T09:50:33.586Z,10.90
2023-03-22T09:54:34.153Z,8.85
2023-03-22T09:58:51.595Z,6.93
2023-03-22T10:02:43.524Z,7.80
2023-03-22T10:06:28.287Z,10.43
2023-03-22T10:10:21.782Z,6.72
2023-03-22T10:14:38.382Z,6.60
2023-03-22T10:18:25.171Z,9.95
2023-03-22T10:22:09.906Z,8.85
2023-03-22T10:25:53.125Z,8.48
2023-03-22T10:29:43.788Z,7.13
2023-03-22T10:33:38.507Z,7.22
2023-03-22T10:37:26.814Z,5.68
2023-03-22T10:41:09.810Z,6.43
2023-03-22T10:45:01.544Z,7.25
2023-03-22T10:48:46.016Z,8.25
2023-03-22T10:52:30.760Z,7.45
2023-03-22T10:56:20.115Z,7.70
2023-03-22T11:00:11.484Z,7.25
2023-03-22T11:03:58.172Z,8.88
2023-03-22T11:07:44.392Z,8.52
2023-03-22T11:11:27.696Z,6.60
2023-03-22T11:15:30.088Z,6.28
2023-03-22T11:19:19.154Z,7.40
2023-03-22T11:23:03.897Z,8.33
2023-03-22T11:27:06.371Z,7.28
2023-03-22T11:31:09.936Z,7.53
2023-03-22T11:35:21.537Z,7.15
2023-03-22T11:39:07.959Z,7.55
2023-03-22T11:42:54.134Z,8.50
2023-03-22T11:46:37.727Z,9.02
2023-03-22T11:50:29.622Z,8.15
2023-03-22T11:54:27.215Z,9.70
2023-03-22T11:58:28.964Z,6.45
2023-03-22T12:02:28.515Z,8.50
2023-03-22T12:06:28.692Z,8.63
2023-03-22T12:10:17.015Z,8.57
2023-03-22T12:14:03.822Z,6.63
2023-03-22T12:17:52.840Z,8.55
2023-03-22T12:21:35.409Z,9.45
2023-03-22T12:25:22.357Z,9.23
2023-03-22T12:29:06.779Z,6.82
2023-03-22T12:33:11.756Z,6.93
2023-03-22T12:36:57.455Z,10.13
2023-03-22T12:40:41.493Z,11.23
2023-03-22T12:44:34.093Z,9.18
2023-03-22T12:48:33.394Z,9.88
2023-03-22T12:52:37.646Z,9.45
2023-03-22T12:56:37.007Z,11.98
2023-03-22T13:00:20.841Z,11.93
2023-03-22T13:04:28.086Z,12.10
2023-03-22T13:08:10.384Z,11.57
2023-03-22T13:12:17.226Z,8.10
2023-03-22T13:16:11.220Z,6.93
2023-03-22T13:20:06.964Z,8.57
2023-03-22T13:24:15.503Z,7.57
2023-03-22T13:28:22.448Z,8.20
2023-03-22T13:32:24.547Z,9.38
2023-03-22T13:36:21.230Z,7.75
2023-03-22T13:40:13.584Z,8.80
2023-03-22T13:43:57.732Z,8.00
2023-03-22T13:47:47.079Z,9.30
2023-03-22T13:51:32.193Z,12.13
2023-03-22T13:55:36.467Z,10.52
2023-03-22T13:59:27.459Z,11.02
2023-03-22T14:03:27.147Z,12.02
2023-03-22T14:07:27.353Z,10.25
2023-03-22T14:11:34.748Z,10.63
2023-03-22T14:15:21.640Z,8.27
2023-03-22T14:19:06.472Z,9.48
